createdAt,value
2023-05-11T00:02:20.391Z,100782.19
2023-05-11T00:05:04.168Z,100782.56
2023-05-11T00:07:49.076Z,100778.66
2023-05-11T00:10:34.372Z,100778.41
2023-05-11T00:13:18.573Z,100780.03
2023-05-11T00:16:02.443Z,100777.88
2023-05-11T00:18:46.519Z,100779.44
2023-05-11T00:21:30.393Z,100786.38
2023-05-11T00:24:14.162Z,100777.59
2023-05-11T00:26:59.505Z,100770.59
2023-05-11T00:29:43.444Z,100780.34
2023-05-11T00:32:27.269Z,100770.69
2023-05-11T00:35:12.958Z,100753.56
2023-05-11T00:37:57.978Z,100778.28
2023-05-11T00:40:41.691Z,100782.75
2023-05-11T00:43:27.003Z,100783.03
2023-05-11T00:46:10.994Z,100766.50
2023-05-11T00:48:55.005Z,100784.03
2023-05-11T00:51:39.730Z,100785.75
2023-05-11T00:54:23.578Z,100779.91
2023-05-11T00:57:07.490Z,100774.31
2023-05-11T00:59:52.622Z,100780.34
2023-05-11T01:02:36.812Z,100776.94
2023-05-11T01:05:20.991Z,100774.31
2023-05-11T01:08:14.051Z,100774.13
2023-05-11T01:11:04.423Z,100773.22
2023-05-11T01:13:54.231Z,100766.28
2023-05-11T01:16:47.422Z,100750.13
2023-05-11T01:19:42.661Z,100765.78
2023-05-11T01:22:39.635Z,100777.75
2023-05-11T01:25:41.699Z,100780.16
2023-05-11T01:28:54.131Z,100752.41
2023-05-11T01:31:44.239Z,100781.78
2023-05-11T01:34:34.304Z,100782.13
2023-05-11T01:37:23.305Z,100786.16
2023-05-11T01:40:13.836Z,100775.97
2023-05-11T01:43:03.096Z,100767.78
2023-05-11T01:45:51.313Z,100775.84
2023-05-11T01:48:41.626Z,100771.16
2023-05-11T01:51:27.085Z,100767.03
2023-05-11T01:54:12.782Z,100765.59
2023-05-11T01:56:58.432Z,100758.22
2023-05-11T01:59:43.444Z,100765.66
2023-05-11T02:02:29.876Z,100762.13
2023-05-11T02:05:19.876Z,100754.97
2023-05-11T02:08:06.756Z,100771.31
2023-05-11T02:10:51.999Z,100770.59
2023-05-11T02:13:37.660Z,100774.22
2023-05-11T02:16:22.217Z,100740.63
2023-05-11T02:19:08.160Z,100763.41
2023-05-11T02:22:14.656Z,100742.63
2023-05-11T02:24:58.712Z,100765.00
2023-05-11T02:27:42.799Z,100733.44
2023-05-11T02:30:28.500Z,100757.34
2023-05-11T02:33:17.560Z,100734.50
2023-05-11T02:36:03.353Z,100758.00
2023-05-11T02:38:53.988Z,100760.13
2023-05-11T02:41:44.773Z,100757.19
2023-05-11T02:44:33.495Z,100760.19
2023-05-11T02:47:21.417Z,100757.50
2023-05-11T02:50:07.106Z,100745.31
2023-05-11T02:52:56.975Z,100752.75
2023-05-11T02:55:43.239Z,100751.75
2023-05-11T02:58:27.387Z,100752.66
2023-05-11T03:01:20.636Z,100748.44
2023-05-11T03:04:06.366Z,100737.06
2023-05-11T03:06:50.838Z,100741.72
2023-05-11T03:09:35.551Z,100765.44
2023-05-11T03:12:22.215Z,100733.50
2023-05-11T03:15:08.428Z,100754.53
2023-05-11T03:17:55.182Z,100769.69
2023-05-11T03:20:43.092Z,100781.06
2023-05-11T03:23:27.997Z,100762.16
2023-05-11T03:26:13.304Z,100742.13
2023-05-11T03:29:01.251Z,100786.88
2023-05-11T03:31:45.441Z,100730.41
2023-05-11T03:34:29.316Z,100774.22
2023-05-11T03:37:15.049Z,100777.22
2023-05-11T03:40:01.056Z,100785.59
2023-05-11T03:42:55.662Z,100786.13
2023-05-11T03:45:44.273Z,100779.19
2023-05-11T03:48:28.647Z,100785.22
2023-05-11T03:51:13.790Z,100788.34
2023-05-11T03:53:57.907Z,100792.16
2023-05-11T03:56:42.209Z,100786.38
2023-05-11T03:59:26.471Z,100790.56
2023-05-11T04:02:12.250Z,100786.50
2023-05-11T04:04:56.083Z,100789.53
2023-05-11T04:07:40.975Z,100793.56
2023-05-11T04:10:24.939Z,100791.84
2023-05-11T04:13:08.863Z,100797.75
2023-05-11T04:15:54.501Z,100797.31
2023-05-11T04:18:39.842Z,100798.69
2023-05-11T04:21:23.720Z,100797.09
2023-05-11T04:24:07.918Z,100794.47
2023-05-11T04:26:57.195Z,100801.41
2023-05-11T04:29:41.095Z,100797.53
2023-05-11T04:32:24.942Z,100801.50
2023-05-11T04:35:13.184Z,100800.88
2023-05-11T04:37:57.146Z,100815.47
2023-05-11T04:40:41.210Z,100817.88
2023-05-11T04:43:26.618Z,100798.59
2023-05-11T04:46:10.699Z,100815.84
2023-05-11T04:48:54.526Z,100820.25
2023-05-11T04:51:40.663Z,100790.41
2023-05-11T04:54:26.251Z,100823.81
2023-05-11T04:57:10.125Z,100821.94
2023-05-11T04:59:54.079Z,100824.47
2023-05-11T05:02:37.979Z,100830.44
2023-05-11T05:05:22.708Z,100826.13
2023-05-11T05:08:08.499Z,100833.50
2023-05-11T05:10:52.435Z,100838.53
2023-05-11T05:13:36.405Z,100834.41
2023-05-11T05:16:20.292Z,100840.03
2023-05-11T05:19:04.207Z,100850.00
2023-05-11T05:21:48.913Z,100857.81
2023-05-11T05:24:34.719Z,100849.06
2023-05-11T05:27:20.163Z,100839.66
2023-05-11T05:30:04.315Z,100850.66
2023-05-11T05:32:49.032Z,100847.25
2023-05-11T05:35:33.057Z,100834.78
2023-05-11T05:38:17.888Z,100848.47
2023-05-11T05:41:03.527Z,100848.69
2023-05-11T05:43:51.687Z,100843.66
2023-05-11T05:46:35.783Z,100854.88
2023-05-11T05:49:19.728Z,100858.19
2023-05-11T05:52:04.255Z,100858.50
2023-05-11T05:54:49.389Z,100871.53
2023-05-11T05:57:34.933Z,100862.81
2023-05-11T06:00:21.673Z,100865.00
2023-05-11T06:03:13.949Z,100862.09
2023-05-11T06:05:58.231Z,100833.44
2023-05-11T06:08:43.535Z,100862.41
2023-05-11T06:11:27.463Z,100871.78
2023-05-11T06:14:12.700Z,100865.03
2023-05-11T06:16:57.482Z,100871.88
2023-05-11T06:19:41.443Z,100886.09
2023-05-11T06:22:26.132Z,100888.31
2023-05-11T06:25:10.464Z,100880.38
2023-05-11T06:27:55.217Z,100853.38
2023-05-11T06:30:40.891Z,100871.94
2023-05-11T06:33:26.746Z,100878.69
2023-05-11T06:36:12.391Z,100875.75
2023-05-11T06:38:56.419Z,100877.78
2023-05-11T06:41:40.644Z,100866.66
2023-05-11T06:44:24.892Z,100879.53
2023-05-11T06:47:12.236Z,100872.91
2023-05-11T06:49:56.321Z,100862.16
2023-05-11T06:52:40.308Z,100838.75
2023-05-11T06:55:27.877Z,100875.50
2023-05-11T06:58:12.014Z,100874.63
2023-05-11T07:00:56.643Z,100875.06
2023-05-11T07:03:42.744Z,100869.56
2023-05-11T07:06:27.295Z,100871.84
2023-05-11T07:09:11.657Z,100881.69
2023-05-11T07:11:55.750Z,100846.22
2023-05-11T07:14:39.706Z,100883.63
2023-05-11T07:17:24.143Z,100878.00
2023-05-11T07:20:10.993Z,100884.91
2023-05-11T07:22:58.232Z,100874.19
2023-05-11T07:25:42.097Z,100895.63
2023-05-11T07:28:26.591Z,100902.94
2023-05-11T07:31:10.740Z,100905.50
2023-05-11T07:33:54.799Z,100907.28
2023-05-11T07:36:40.278Z,100875.13
2023-05-11T07:39:24.268Z,100888.59
2023-05-11T07:42:08.423Z,100867.88
2023-05-11T07:44:52.384Z,100915.94
2023-05-11T07:47:37.023Z,100903.88
2023-05-11T07:50:23.938Z,100894.84
2023-05-11T07:53:10.078Z,100907.06
2023-05-11T07:55:54.573Z,100908.72
2023-05-11T07:58:38.447Z,100905.31
2023-05-11T08:01:24.030Z,100909.03
2023-05-11T08:04:07.978Z,100912.44
2023-05-11T08:06:52.074Z,100906.66
2023-05-11T08:09:37.700Z,100910.81
2023-05-11T08:12:21.626Z,100905.19
2023-05-11T08:15:06.632Z,100906.72
2023-05-11T08:17:51.238Z,100915.97
2023-05-11T08:20:35.427Z,100928.78
2023-05-11T08:23:19.544Z,100883.38
2023-05-11T08:26:04.993Z,100880.16
2023-05-11T08:28:49.083Z,100920.63
2023-05-11T08:31:33.114Z,100914.94
2023-05-11T08:34:20.180Z,100916.63
2023-05-11T08:37:04.546Z,100908.41
2023-05-11T08:39:48.420Z,100901.69
2023-05-11T08:42:35.948Z,100901.41
2023-05-11T08:45:22.725Z,100905.34
2023-05-11T08:48:07.545Z,100905.41
2023-05-11T08:50:52.107Z,100911.03
2023-05-11T08:53:36.274Z,100897.13
2023-05-11T08:56:24.076Z,100900.22
2023-05-11T08:59:09.725Z,100892.06
2023-05-11T09:01:54.699Z,100881.22
2023-05-11T09:04:39.217Z,100886.00
2023-05-11T09:07:25.840Z,100890.19
2023-05-11T09:10:12.911Z,100890.28
2023-05-11T09:12:57.969Z,100881.06
2023-05-11T09:15:43.229Z,100879.59
2023-05-11T09:18:28.014Z,100847.22
2023-05-11T09:21:13.648Z,100877.31
2023-05-11T09:23:59.181Z,100886.88
2023-05-11T09:26:43.074Z,100881.13
2023-05-11T09:29:30.456Z,100880.00
2023-05-11T09:32:17.548Z,100857.09
2023-05-11T09:35:20.851Z,100861.09
2023-05-11T09:38:07.233Z,100867.19
2023-05-11T09:40:53.452Z,100859.09
2023-05-11T09:43:37.491Z,100853.50
2023-05-11T09:46:22.931Z,100864.91
2023-05-11T09:49:08.929Z,100843.22
2023-05-11T09:52:02.581Z,100861.16
2023-05-11T09:54:48.099Z,100861.28
2023-05-11T09:57:33.217Z,100865.56
2023-05-11T10:00:17.624Z,100871.34
2023-05-11T10:03:03.109Z,100861.84
2023-05-11T10:06:00.073Z,100871.53
2023-05-11T10:08:44.107Z,100875.16
2023-05-11T10:11:28.245Z,100866.66
2023-05-11T10:14:13.485Z,100846.69
2023-05-11T10:16:59.519Z,100833.75
2023-05-11T10:19:43.900Z,100862.66
2023-05-11T10:22:30.788Z,100858.38
2023-05-11T10:25:16.378Z,100858.75
2023-05-11T10:28:00.535Z,100860.19
2023-05-11T10:30:46.013Z,100857.31
2023-05-11T10:33:30.551Z,100849.75
2023-05-11T10:36:19.251Z,100845.53
2023-05-11T10:39:05.572Z,100837.31
2023-05-11T10:42:02.098Z,100843.31
2023-05-11T10:45:06.986Z,100835.28
2023-05-11T10:48:31.736Z,100847.84
2023-05-11T10:51:31.054Z,100835.22
2023-05-11T10:54:37.720Z,100857.06
2023-05-11T10:57:47.857Z,100858.88
2023-05-11T11:01:11.837Z,100850.47
2023-05-11T11:04:00.474Z,100859.28
2023-05-11T11:06:45.441Z,100851.03
2023-05-11T11:09:51.407Z,100851.09
2023-05-11T11:12:35.959Z,100846.06
2023-05-11T11:15:20.380Z,100840.66
2023-05-11T11:18:24.555Z,100826.97
2023-05-11T11:21:13.803Z,100827.56
2023-05-11T11:23:57.860Z,100835.22
2023-05-11T11:26:50.748Z,100843.06
2023-05-11T11:29:36.017Z,100831.91
2023-05-11T11:32:28.948Z,100837.91
2023-05-11T11:35:46.060Z,100842.59
2023-05-11T11:38:32.622Z,100826.72
2023-05-11T11:41:30.262Z,100838.56
2023-05-11T11:44:23.520Z,100819.41
2023-05-11T11:47:15.074Z,100857.66
2023-05-11T11:50:14.372Z,100841.94
2023-05-11T11:52:58.502Z,100829.28
2023-05-11T11:55:50.181Z,100840.03
2023-05-11T11:59:00.499Z,100833.38
2023-05-11T12:01:47.082Z,100827.84
2023-05-11T12:04:52.171Z,100827.50
2023-05-11T12:07:40.516Z,100798.25
2023-05-11T12:10:24.782Z,100790.16
2023-05-11T12:13:11.888Z,100830.59
2023-05-11T12:16:09.261Z,100814.09
2023-05-11T12:18:58.516Z,100835.53
2023-05-11T12:21:46.577Z,100829.34
2023-05-11T12:24:31.873Z,100823.44
2023-05-11T12:27:18.677Z,100822.69
2023-05-11T12:30:02.717Z,100822.88
2023-05-11T12:35:42.047Z,100812.44
2023-05-11T12:38:27.282Z,100817.00
2023-05-11T12:41:11.268Z,100822.06
2023-05-11T12:43:56.073Z,100821.47
2023-05-11T12:46:40.645Z,100797.22
2023-05-11T12:49:27.242Z,100824.81
2023-05-11T12:52:15.233Z,100811.03
2023-05-11T12:55:01.211Z,100787.78
2023-05-11T12:57:50.493Z,100773.66
2023-05-11T13:00:34.887Z,100777.63
2023-05-11T13:03:22.974Z,100782.81
2023-05-11T13:06:08.335Z,100761.03
2023-05-11T13:08:53.983Z,100799.19
2023-05-11T13:11:37.960Z,100685.94
2023-05-11T13:14:21.915Z,100791.75
2023-05-11T13:17:06.287Z,100777.53
2023-05-11T13:19:50.442Z,100765.53
2023-05-11T13:22:34.421Z,100770.88
2023-05-11T13:25:21.429Z,100759.56
2023-05-11T13:28:06.063Z,100765.34
2023-05-11T13:30:51.523Z,100737.13
2023-05-11T13:33:35.955Z,100746.13
2023-05-11T13:36:21.050Z,100749.31
2023-05-11T13:39:05.215Z,100766.44
2023-05-11T13:41:50.702Z,100775.13
2023-05-11T13:44:34.648Z,100749.09
2023-05-11T13:47:18.582Z,100755.88
2023-05-11T13:50:02.872Z,100757.03
2023-05-11T13:52:49.614Z,100762.19
2023-05-11T13:55:33.749Z,100761.69
2023-05-11T13:58:19.219Z,100770.59
2023-05-11T14:01:07.815Z,100758.25
2023-05-11T14:03:57.147Z,100733.03
2023-05-11T14:06:42.132Z,100769.16
2023-05-11T14:09:26.471Z,100771.88
2023-05-11T14:12:10.694Z,100754.34
2023-05-11T14:14:56.027Z,100776.56
2023-05-11T14:17:43.354Z,100752.47
2023-05-11T14:20:27.612Z,100757.56
2023-05-11T14:23:11.983Z,100788.13
2023-05-11T14:25:56.832Z,100780.47
2023-05-11T14:28:41.594Z,100777.19
2023-05-11T14:31:28.030Z,100776.00
2023-05-11T14:34:13.998Z,100752.25
2023-05-11T14:36:58.441Z,100783.97
2023-05-11T14:39:42.963Z,100785.78
2023-05-11T14:42:27.052Z,100778.41
2023-05-11T14:45:12.086Z,100783.59
2023-05-11T14:47:57.434Z,100769.59
2023-05-11T14:50:43.175Z,100748.38
2023-05-11T14:53:27.197Z,100769.47
2023-05-11T14:56:11.423Z,100767.72
2023-05-11T14:58:56.370Z,100771.72
2023-05-11T15:01:40.315Z,100782.09
2023-05-11T15:04:25.942Z,100783.81
2023-05-11T15:07:09.845Z,100778.16
2023-05-11T15:09:54.182Z,100789.16
2023-05-11T15:12:38.144Z,100791.75
2023-05-11T15:15:21.919Z,100784.72
2023-05-11T15:18:05.856Z,100783.13
2023-05-11T15:20:51.382Z,100791.00
2023-05-11T15:23:35.247Z,100773.25
2023-05-11T15:26:19.576Z,100779.06
2023-05-11T15:29:03.708Z,100781.06
2023-05-11T15:31:47.776Z,100769.78
2023-05-11T15:34:32.219Z,100763.16
2023-05-11T15:37:17.696Z,100763.06
2023-05-11T15:40:01.761Z,100779.03
2023-05-11T15:42:48.346Z,100769.78
2023-05-11T15:45:32.583Z,100747.59
2023-05-11T15:48:16.828Z,100757.56
2023-05-11T15:51:02.252Z,100751.56
2023-05-11T15:53:47.677Z,100768.56
2023-05-11T15:56:31.684Z,100758.69
2023-05-11T15:59:15.727Z,100762.56
2023-05-11T16:02:00.030Z,100770.25
2023-05-11T16:04:44.429Z,100768.22
2023-05-11T16:07:28.815Z,100772.78
2023-05-11T16:10:14.433Z,100774.44
2023-05-11T16:12:58.952Z,100776.34
2023-05-11T16:15:43.628Z,100785.69
2023-05-11T16:18:28.011Z,100776.84
2023-05-11T16:21:11.856Z,100756.22
2023-05-11T16:23:56.165Z,100769.03
2023-05-11T16:26:41.886Z,100745.16
2023-05-11T16:29:26.616Z,100775.47
2023-05-11T16:32:10.927Z,100773.06
2023-05-11T16:34:55.369Z,100771.63
2023-05-11T16:37:39.991Z,100762.56
2023-05-11T16:40:24.143Z,100752.47
2023-05-11T16:43:09.662Z,100765.22
2023-05-11T16:45:54.154Z,100777.47
2023-05-11T16:48:38.547Z,100774.41
2023-05-11T16:51:23.430Z,100778.94
2023-05-11T16:54:08.546Z,100769.44
2023-05-11T16:56:54.374Z,100770.63
2023-05-11T16:59:40.933Z,100781.06
2023-05-11T17:02:25.271Z,100774.44
2023-05-11T17:05:12.329Z,100781.31
2023-05-11T17:07:57.425Z,100784.19
2023-05-11T17:10:42.758Z,100785.47
2023-05-11T17:13:27.567Z,100781.56
2023-05-11T17:16:14.210Z,100784.59
2023-05-11T17:18:59.640Z,100781.44
2023-05-11T17:21:45.316Z,100777.97
2023-05-11T17:24:30.615Z,100757.09
2023-05-11T17:27:15.776Z,100796.78
2023-05-11T17:30:00.854Z,100791.25
2023-05-11T17:32:50.654Z,100782.72
2023-05-11T17:35:35.930Z,100756.19
2023-05-11T17:38:20.935Z,100785.03
2023-05-11T17:41:06.720Z,100780.16
2023-05-11T17:43:51.715Z,100782.00
2023-05-11T17:46:37.163Z,100788.75
2023-05-11T17:49:23.548Z,100792.25
2023-05-11T17:52:09.378Z,100788.09
2023-05-11T17:54:54.373Z,100761.00
2023-05-11T17:57:39.463Z,100790.75
2023-05-11T18:00:25.337Z,100775.41
2023-05-11T18:03:10.821Z,100757.88
2023-05-11T18:05:57.646Z,100774.72
2023-05-11T18:08:42.795Z,100786.41
2023-05-11T18:11:28.157Z,100790.00
2023-05-11T18:14:13.347Z,100799.09
2023-05-11T18:16:58.536Z,100803.34
2023-05-11T18:19:43.679Z,100799.09
2023-05-11T18:22:31.738Z,100801.09
2023-05-11T18:25:16.888Z,100789.63
2023-05-11T18:28:01.953Z,100797.34
2023-05-11T18:30:47.071Z,100799.47
2023-05-11T18:33:32.109Z,100806.31
2023-05-11T18:36:17.372Z,100773.50
2023-05-11T18:39:04.205Z,100805.59
2023-05-11T18:41:49.298Z,100806.25
2023-05-11T18:44:35.540Z,100805.91
2023-05-11T18:47:19.754Z,100810.88
2023-05-11T18:50:07.509Z,100805.41
2023-05-11T18:52:51.923Z,100805.38
2023-05-11T18:55:51.855Z,100819.66
2023-05-11T18:58:38.307Z,100801.66
2023-05-11T19:01:30.266Z,100798.91
2023-05-11T19:04:22.802Z,100829.16
2023-05-11T19:07:08.071Z,100826.31
2023-05-11T19:09:53.195Z,100829.22
2023-05-11T19:12:39.809Z,100827.41
2023-05-11T19:15:24.912Z,100826.84
2023-05-11T19:18:11.383Z,100822.84
2023-05-11T19:20:56.278Z,100818.97
2023-05-11T19:23:41.527Z,100816.19
2023-05-11T19:26:27.018Z,100772.16
2023-05-11T19:29:17.860Z,100782.31
2023-05-11T19:32:03.114Z,100776.56
2023-05-11T19:34:48.807Z,100815.72
2023-05-11T19:37:33.828Z,100804.03
2023-05-11T19:40:44.630Z,100801.34
2023-05-11T19:43:24.880Z,100809.59
2023-05-11T19:46:11.449Z,100812.56
2023-05-11T19:48:56.834Z,100807.28
2023-05-11T19:51:41.889Z,100810.72
2023-05-11T19:54:26.870Z,100813.19
2023-05-11T19:57:11.927Z,100802.38
2023-05-11T19:59:57.366Z,100817.25
2023-05-11T20:02:43.770Z,100813.97
2023-05-11T20:05:29.035Z,100810.63
2023-05-11T20:08:14.168Z,100814.03
2023-05-11T20:10:59.141Z,100792.94
2023-05-11T20:13:44.834Z,100804.66
2023-05-11T20:16:30.148Z,100795.50
2023-05-11T20:19:17.030Z,100780.69
2023-05-11T20:22:01.974Z,100810.09
2023-05-11T20:24:46.221Z,100812.44
2023-05-11T20:27:31.134Z,100800.63
2023-05-11T20:30:16.713Z,100812.78
2023-05-11T20:35:53.170Z,100811.31
2023-05-11T20:38:38.529Z,100805.41
2023-05-11T20:41:24.094Z,100805.41
2023-05-11T20:44:14.457Z,100805.34
2023-05-11T20:46:59.517Z,100800.13
2023-05-11T20:49:44.476Z,100793.25
2023-05-11T20:52:30.874Z,100795.69
2023-05-11T20:55:16.778Z,100801.94
2023-05-11T20:58:01.416Z,100792.53
2023-05-11T21:00:46.410Z,100789.72
2023-05-11T21:03:31.414Z,100786.88
2023-05-11T21:06:16.680Z,100784.38
2023-05-11T21:09:04.484Z,100778.28
2023-05-11T21:11:49.723Z,100618.47
2023-05-11T21:14:34.445Z,100771.47
2023-05-11T21:17:19.203Z,100777.66
2023-05-11T21:20:05.134Z,100769.66
2023-05-11T21:22:50.574Z,100758.63
2023-05-11T21:25:36.806Z,100774.84
2023-05-11T21:28:21.107Z,100775.16
2023-05-11T21:31:05.455Z,100760.31
2023-05-11T21:33:49.499Z,100768.03
2023-05-11T21:36:33.483Z,100776.19
2023-05-11T21:39:17.374Z,100781.28
2023-05-11T21:42:03.650Z,100771.53
2023-05-11T21:44:47.449Z,100772.53
2023-05-11T21:47:31.455Z,100775.09
2023-05-11T21:50:15.363Z,100767.28
2023-05-11T21:52:59.256Z,100747.09
2023-05-11T21:55:43.047Z,100755.44
2023-05-11T21:58:29.122Z,100755.59
2023-05-11T22:01:13.022Z,100762.38
2023-05-11T22:03:56.998Z,100730.38
2023-05-11T22:06:41.075Z,100755.47
2023-05-11T22:09:24.964Z,100765.22
2023-05-11T22:12:09.855Z,100741.50
2023-05-11T22:14:55.291Z,100750.44
2023-05-11T22:17:39.581Z,100745.75
2023-05-11T22:20:23.436Z,100759.88
2023-05-11T22:23:07.334Z,100752.78
2023-05-11T22:25:51.326Z,100752.16
2023-05-11T22:28:35.092Z,100750.31
2023-05-11T22:31:21.526Z,100750.44
2023-05-11T22:34:05.500Z,100744.41
2023-05-11T22:36:49.338Z,100744.34
2023-05-11T22:39:33.335Z,100739.44
2023-05-11T22:42:17.219Z,100737.38
2023-05-11T22:45:00.990Z,100733.34
2023-05-11T22:47:46.982Z,100732.84
2023-05-11T22:50:31.140Z,100740.69
2023-05-11T22:53:15.053Z,100732.78
2023-05-11T22:56:03.878Z,100734.13
2023-05-11T22:58:47.753Z,100738.63
2023-05-11T23:01:31.645Z,100726.47
2023-05-11T23:04:16.864Z,100742.38
2023-05-11T23:07:01.045Z,100741.25
2023-05-11T23:09:45.238Z,100745.84
2023-05-11T23:12:29.075Z,100750.56
2023-05-11T23:15:13.009Z,100747.09
2023-05-11T23:17:57.033Z,100749.75
2023-05-11T23:20:42.423Z,100750.84
2023-05-11T23:23:26.862Z,100749.16
2023-05-11T23:26:10.724Z,100742.94
2023-05-11T23:28:54.589Z,100737.53
2023-05-11T23:31:38.546Z,100739.75
2023-05-11T23:34:22.387Z,100742.06
2023-05-11T23:37:07.632Z,100740.75
2023-05-11T23:39:51.833Z,100743.56
2023-05-11T23:42:35.717Z,100736.44
2023-05-11T23:45:19.796Z,100738.97
2023-05-11T23:48:03.729Z,100735.09
2023-05-11T23:50:47.690Z,100727.63
2023-05-11T23:53:32.990Z,100723.31
2023-05-11T23:56:16.831Z,100729.00
2023-05-11T23:59:00.780Z,100722.81
